Time;durP1;ratioP1;P1;durP2;ratioP2;P2;SDS_P1;SDS_P2;PMS_P1;PMS_P2;Temp;Humidity;BMP_temperature;BMP_pressure;BME280_temperature;BME280_humidity;BME280_pressure;Samples;Min_cycle;Max_cycle;Signal;HPM_P1;HPM_P2
2021/09/29 00:00:45;;;;;;;12.05;10.75;;;13.30;99.90;;;;;;2650465;28;20634;-68
2021/09/29 00:02:04;;;;;;;11.00;10.00;;;13.30;99.90;;;;;;2651289;28;20304;-68
2021/09/29 00:03:22;;;;;;;10.50;9.43;;;13.40;99.90;;;;;;2651000;28;20212;-68
2021/09/29 00:04:40;;;;;;;11.55;10.35;;;13.50;99.90;;;;;;2654208;28;20203;-68
2021/09/29 00:05:59;;;;;;;10.75;9.65;;;13.60;99.90;;;;;;2655230;28;20231;-68
2021/09/29 00:07:17;;;;;;;15.32;10.35;;;13.60;99.90;;;;;;2655290;28;20252;-68
2021/09/29 00:08:35;;;;;;;11.57;10.02;;;13.60;99.90;;;;;;2656971;28;20211;-68
2021/09/29 00:09:53;;;;;;;10.43;9.37;;;13.60;99.90;;;;;;2659312;28;20289;-68
2021/09/29 00:11:11;;;;;;;11.73;10.35;;;13.60;99.90;;;;;;2658835;28;20210;-68
2021/09/29 00:12:29;;;;;;;10.53;9.57;;;13.60;99.90;;;;;;2659218;28;20282;-68
2021/09/29 00:13:47;;;;;;;9.88;8.98;;;13.50;99.90;;;;;;2656338;28;20898;-69
2021/09/29 00:15:09;;;;;;;11.47;9.40;;;13.50;99.90;;;;;;2648463;28;20212;-68
2021/09/29 00:16:28;;;;;;;12.60;11.25;;;13.50;99.90;;;;;;2654731;28;20801;-68
2021/09/29 00:17:46;;;;;;;10.80;9.70;;;13.60;99.90;;;;;;2657674;28;20740;-68
2021/09/29 00:19:05;;;;;;;11.98;10.80;;;13.60;99.90;;;;;;2655200;28;20226;-68
2021/09/29 00:20:22;;;;;;;11.52;10.43;;;13.60;99.90;;;;;;2654648;28;20263;-68
2021/09/29 00:21:41;;;;;;;11.30;9.90;;;13.70;99.90;;;;;;2658806;28;20292;-68
2021/09/29 00:22:58;;;;;;;12.05;10.43;;;13.60;99.90;;;;;;2653974;28;20593;-68
2021/09/29 00:24:17;;;;;;;11.93;10.27;;;13.60;99.90;;;;;;2653462;28;20300;-68
2021/09/29 00:25:35;;;;;;;10.73;9.63;;;13.50;99.90;;;;;;2654442;28;20227;-68
2021/09/29 00:26:52;;;;;;;12.23;10.90;;;13.50;99.90;;;;;;2652043;28;20191;-68
2021/09/29 00:28:11;;;;;;;12.17;10.20;;;13.50;99.90;;;;;;2653549;28;20361;-68
2021/09/29 00:29:28;;;;;;;10.65;9.65;;;13.40;99.90;;;;;;2656991;28;20199;-68
2021/09/29 00:31:02;;;;;;;12.03;10.83;;;13.50;99.90;;;;;;2651532;28;20257;-68
2021/09/29 00:32:20;;;;;;;11.27;9.35;;;13.50;99.90;;;;;;2652863;28;20216;-68
2021/09/29 00:33:45;;;;;;;10.60;9.57;;;13.40;99.90;;;;;;2657770;28;20285;-68
2021/09/29 00:35:04;;;;;;;10.90;9.80;;;13.40;99.90;;;;;;2652854;28;20334;-68
2021/09/29 00:36:22;;;;;;;13.10;10.30;;;13.30;99.90;;;;;;2657700;28;20269;-68
2021/09/29 00:37:41;;;;;;;12.93;10.65;;;13.20;99.90;;;;;;2655821;28;20199;-68
2021/09/29 00:38:58;;;;;;;12.20;11.00;;;13.10;99.90;;;;;;2656277;28;20206;-68
2021/09/29 00:40:17;;;;;;;11.10;9.93;;;13.10;99.90;;;;;;2659032;28;20207;-68
2021/09/29 00:41:34;;;;;;;11.20;10.20;;;13.10;99.90;;;;;;2654074;28;20261;-68
2021/09/29 00:42:53;;;;;;;11.97;10.87;;;13.10;99.90;;;;;;2656984;28;20235;-68
2021/09/29 00:44:11;;;;;;;12.90;11.15;;;13.10;99.90;;;;;;2651817;28;20204;-68
2021/09/29 00:45:29;;;;;;;11.75;10.55;;;13.20;99.90;;;;;;2656686;28;20203;-68
2021/09/29 00:46:47;;;;;;;10.90;9.87;;;13.20;99.90;;;;;;2656952;28;20293;-68
2021/09/29 00:48:05;;;;;;;11.00;10.00;;;13.10;99.90;;;;;;2656028;28;20207;-68
2021/09/29 00:49:23;;;;;;;10.38;9.48;;;13.10;99.90;;;;;;2655160;28;20199;-68
2021/09/29 00:50:41;;;;;;;10.60;9.30;;;13.20;99.90;;;;;;2656781;28;20294;-68
2021/09/29 00:51:59;;;;;;;11.32;10.20;;;13.20;99.90;;;;;;2657988;28;20249;-68
2021/09/29 00:53:17;;;;;;;10.50;9.50;;;13.10;99.90;;;;;;2655747;28;20286;-68
2021/09/29 00:54:36;;;;;;;10.73;9.73;;;13.10;99.90;;;;;;2656986;28;20547;-68
2021/09/29 00:55:54;;;;;;;10.98;9.93;;;13.10;99.90;;;;;;2654701;28;20261;-68
2021/09/29 00:57:12;;;;;;;10.07;9.07;;;13.20;99.90;;;;;;2658432;28;20249;-68
2021/09/29 00:58:30;;;;;;;11.27;10.20;;;13.20;99.90;;;;;;2655013;28;20668;-68
2021/09/29 00:59:48;;;;;;;14.32;11.38;;;13.10;99.90;;;;;;2652840;28;20277;-68
2021/09/29 01:01:07;;;;;;;10.73;9.73;;;13.00;99.90;;;;;;2653835;28;20227;-68
2021/09/29 01:02:24;;;;;;;11.90;10.80;;;13.00;99.90;;;;;;2653995;28;20254;-68
2021/09/29 01:03:43;;;;;;;12.03;10.83;;;13.00;99.90;;;;;;2658366;28;20269;-68
2021/09/29 01:05:00;;;;;;;12.52;10.10;;;13.10;99.90;;;;;;2655212;28;20600;-68
2021/09/29 01:06:19;;;;;;;12.23;10.80;;;13.10;99.90;;;;;;2654464;28;20365;-68
2021/09/29 01:07:37;;;;;;;11.50;10.50;;;13.00;99.90;;;;;;2657855;28;20256;-68
2021/09/29 01:08:56;;;;;;;10.93;9.93;;;13.00;99.90;;;;;;2658432;28;20199;-68
2021/09/29 01:10:13;;;;;;;10.60;9.50;;;13.20;99.90;;;;;;2654839;28;20203;-68
2021/09/29 01:11:32;;;;;;;10.27;9.37;;;13.20;99.90;;;;;;2652651;28;20377;-68
2021/09/29 01:12:50;;;;;;;11.55;10.35;;;13.30;99.90;;;;;;2650287;28;20643;-68
2021/09/29 01:14:07;;;;;;;11.32;10.23;;;13.30;99.90;;;;;;2653574;28;20215;-68
2021/09/29 01:15:27;;;;;;;9.80;8.90;;;13.30;99.90;;;;;;2652732;28;20302;-68
2021/09/29 01:16:46;;;;;;;12.20;11.00;;;13.20;99.90;;;;;;2653939;28;20211;-68
2021/09/29 01:18:03;;;;;;;11.27;10.05;;;13.00;99.90;;;;;;2648953;28;20229;-68
2021/09/29 01:19:22;;;;;;;12.17;10.27;;;12.90;99.90;;;;;;2651697;28;20243;-68
2021/09/29 01:20:40;;;;;;;11.32;10.23;;;12.80;99.90;;;;;;2655599;28;20266;-69
2021/09/29 01:21:58;;;;;;;10.93;9.80;;;12.70;99.90;;;;;;2654285;28;20257;-68
2021/09/29 01:23:17;;;;;;;10.93;9.82;;;12.70;99.90;;;;;;2654737;28;20961;-68
2021/09/29 01:24:34;;;;;;;11.20;10.10;;;12.70;99.90;;;;;;2652035;28;20198;-68
2021/09/29 01:25:53;;;;;;;10.73;9.73;;;12.60;99.90;;;;;;2654782;28;20742;-68
2021/09/29 01:27:11;;;;;;;11.23;10.05;;;12.60;99.90;;;;;;2658178;28;20238;-68
2021/09/29 01:28:29;;;;;;;12.77;11.57;;;12.70;99.90;;;;;;2651713;28;20272;-68
2021/09/29 01:29:48;;;;;;;14.37;10.83;;;12.60;99.90;;;;;;2657876;28;20683;-68
2021/09/29 01:31:05;;;;;;;14.13;11.57;;;12.60;99.90;;;;;;2654019;28;20879;-68
2021/09/29 01:32:24;;;;;;;11.97;10.70;;;12.60;99.90;;;;;;2652045;28;20224;-69
2021/09/29 01:33:41;;;;;;;13.30;12.00;;;12.70;99.90;;;;;;2658417;28;20750;-68
2021/09/29 01:35:00;;;;;;;13.23;11.17;;;12.70;99.90;;;;;;2654788;28;20297;-68
2021/09/29 01:36:18;;;;;;;11.90;10.70;;;12.80;99.90;;;;;;2658359;28;20199;-68
2021/09/29 01:37:37;;;;;;;13.23;11.82;;;12.80;99.90;;;;;;2653826;28;20223;-68
2021/09/29 01:38:55;;;;;;;11.07;9.90;;;12.90;99.90;;;;;;2650624;28;20195;-69
2021/09/29 01:40:13;;;;;;;20.88;11.38;;;12.90;99.90;;;;;;2652213;28;20333;-68
2021/09/29 01:41:32;;;;;;;12.50;11.30;;;13.00;99.90;;;;;;2647342;28;20215;-68
2021/09/29 01:42:50;;;;;;;15.70;13.18;;;13.00;99.90;;;;;;2657032;28;20280;-68
2021/09/29 01:44:09;;;;;;;14.95;13.45;;;13.00;99.90;;;;;;2654546;28;20223;-68
2021/09/29 01:45:27;;;;;;;14.02;12.73;;;13.00;99.90;;;;;;2658176;28;20206;-68
2021/09/29 01:46:46;;;;;;;18.10;12.77;;;13.00;99.90;;;;;;2653266;28;20310;-68
2021/09/29 01:48:04;;;;;;;12.50;11.30;;;13.00;99.90;;;;;;2658581;28;20207;-68
2021/09/29 01:49:22;;;;;;;12.10;10.57;;;13.00;99.90;;;;;;2649023;28;20210;-68
2021/09/29 01:50:40;;;;;;;13.17;9.77;;;13.00;99.90;;;;;;2653949;28;20633;-70
2021/09/29 01:51:57;;;;;;;12.25;11.15;;;12.90;99.90;;;;;;2646988;28;20211;-68
2021/09/29 01:53:16;;;;;;;12.30;11.10;;;12.90;99.90;;;;;;2656193;28;20289;-68
2021/09/29 01:54:33;;;;;;;11.57;10.00;;;12.70;99.90;;;;;;2652887;28;20677;-68
2021/09/29 01:55:52;;;;;;;11.93;10.77;;;12.60;99.90;;;;;;2650062;28;20300;-68
2021/09/29 01:57:09;;;;;;;16.63;12.73;;;12.50;99.90;;;;;;2656303;28;20264;-68
2021/09/29 01:58:28;;;;;;;12.47;11.23;;;12.50;99.90;;;;;;2648619;28;20223;-67
2021/09/29 01:59:45;;;;;;;12.43;11.13;;;12.50;99.90;;;;;;2650745;28;20302;-69
2021/09/29 02:01:04;;;;;;;11.37;10.17;;;12.50;99.90;;;;;;2656762;28;20289;-68
2021/09/29 02:02:22;;;;;;;18.08;11.40;;;12.60;99.90;;;;;;2655056;28;20261;-68
2021/09/29 02:03:39;;;;;;;12.13;10.98;;;12.60;99.90;;;;;;2657014;28;20211;-69
2021/09/29 02:04:58;;;;;;;12.30;11.10;;;12.60;99.90;;;;;;2650886;28;20796;-68
2021/09/29 02:06:15;;;;;;;12.93;11.63;;;12.60;99.90;;;;;;2654592;28;20231;-68
2021/09/29 02:07:34;;;;;;;13.17;11.87;;;12.70;99.90;;;;;;2652296;28;20243;-68
2021/09/29 02:08:52;;;;;;;13.23;11.93;;;12.80;99.90;;;;;;2657888;28;20965;-69
2021/09/29 02:10:11;;;;;;;11.95;10.93;;;12.80;99.90;;;;;;2651352;28;20649;-68
2021/09/29 02:11:29;;;;;;;12.25;11.05;;;12.80;99.90;;;;;;2648567;28;20265;-68
2021/09/29 02:12:47;;;;;;;12.82;11.48;;;12.80;99.90;;;;;;2649054;28;20322;-68
2021/09/29 02:14:05;;;;;;;14.10;12.70;;;12.80;99.90;;;;;;2653893;28;20687;-68
2021/09/29 02:15:23;;;;;;;12.65;11.35;;;12.90;99.90;;;;;;2654462;28;20210;-68
2021/09/29 02:16:41;;;;;;;11.07;9.97;;;12.90;99.90;;;;;;2652375;28;20230;-68
2021/09/29 02:18:00;;;;;;;11.57;10.40;;;12.90;99.90;;;;;;2647010;28;20207;-68
2021/09/29 02:19:17;;;;;;;13.30;11.60;;;12.90;99.90;;;;;;2647366;28;20626;-68
2021/09/29 02:20:36;;;;;;;11.40;10.30;;;12.90;99.90;;;;;;2647939;28;20199;-68
2021/09/29 02:21:54;;;;;;;12.75;11.45;;;12.90;99.90;;;;;;2654704;28;20257;-68
2021/09/29 02:23:11;;;;;;;13.85;12.45;;;12.90;99.90;;;;;;2655650;28;20203;-68
2021/09/29 02:24:33;;;;;;;13.10;11.80;;;12.90;99.90;;;;;;2647401;28;20309;-68
2021/09/29 02:25:51;;;;;;;12.60;11.30;;;12.80;99.90;;;;;;2657656;28;20207;-68
2021/09/29 02:27:09;;;;;;;13.55;11.95;;;12.70;99.90;;;;;;2658431;28;20280;-68
2021/09/29 02:28:27;;;;;;;12.70;11.40;;;12.70;99.90;;;;;;2654234;28;20664;-68
2021/09/29 02:29:44;;;;;;;12.35;11.25;;;12.70;99.90;;;;;;2656931;28;20289;-67
2021/09/29 02:31:03;;;;;;;12.63;10.83;;;12.60;99.90;;;;;;2653811;28;20230;-68
2021/09/29 02:32:20;;;;;;;11.70;10.52;;;12.70;99.90;;;;;;2657752;28;20540;-68
2021/09/29 02:33:39;;;;;;;12.53;11.27;;;12.80;99.90;;;;;;2651150;28;20231;-69
2021/09/29 02:34:56;;;;;;;11.90;10.70;;;12.80;99.90;;;;;;2655967;28;20191;-68
2021/09/29 02:36:15;;;;;;;12.17;10.63;;;12.80;99.90;;;;;;2655840;28;20241;-68
2021/09/29 02:37:33;;;;;;;12.80;11.50;;;12.90;99.90;;;;;;2656152;28;20628;-68
2021/09/29 02:38:51;;;;;;;13.10;11.85;;;12.80;99.90;;;;;;2658156;28;20246;-68
2021/09/29 02:40:10;;;;;;;11.85;10.85;;;12.80;99.90;;;;;;2654419;28;20573;-69
2021/09/29 02:41:27;;;;;;;12.55;11.18;;;12.80;99.90;;;;;;2655620;28;20286;-68
2021/09/29 02:42:46;;;;;;;11.80;10.60;;;12.80;99.90;;;;;;2651584;28;20212;-68
2021/09/29 02:44:08;;;;;;;13.10;11.48;;;12.70;99.90;;;;;;2657091;28;20830;-68
2021/09/29 02:45:26;;;;;;;12.00;10.80;;;12.70;99.90;;;;;;2649367;28;20207;-68
2021/09/29 02:46:44;;;;;;;12.48;11.20;;;12.70;99.90;;;;;;2649595;28;20242;-68
2021/09/29 02:48:02;;;;;;;12.00;10.50;;;12.70;99.90;;;;;;2656968;28;20202;-69
2021/09/29 02:49:21;;;;;;;12.57;11.00;;;12.70;99.90;;;;;;2653631;28;20261;-68
2021/09/29 02:50:39;;;;;;;13.55;11.10;;;12.70;99.90;;;;;;2657098;28;20202;-69
2021/09/29 02:51:56;;;;;;;12.38;11.07;;;12.70;99.90;;;;;;2653943;28;20194;-68
2021/09/29 02:53:15;;;;;;;13.43;11.40;;;12.70;99.90;;;;;;2657668;28;20280;-68
2021/09/29 02:54:32;;;;;;;13.55;11.52;;;12.60;99.90;;;;;;2653800;28;20206;-68
2021/09/29 02:55:51;;;;;;;11.93;10.83;;;12.60;99.90;;;;;;2657379;28;20242;-68
2021/09/29 02:57:09;;;;;;;11.68;10.45;;;12.60;99.90;;;;;;2653095;28;20206;-68
2021/09/29 02:58:28;;;;;;;13.00;11.70;;;12.60;99.90;;;;;;2655059;28;20671;-68
2021/09/29 02:59:46;;;;;;;12.02;10.27;;;12.60;99.90;;;;;;2653840;28;20211;-68
2021/09/29 03:01:05;;;;;;;14.65;11.35;;;12.60;99.90;;;;;;2655305;28;20269;-68
2021/09/29 03:02:23;;;;;;;12.48;11.27;;;12.60;99.90;;;;;;2657386;28;20691;-69
2021/09/29 03:03:41;;;;;;;12.63;11.18;;;12.70;99.90;;;;;;2652401;28;20819;-68
2021/09/29 03:04:59;;;;;;;12.50;11.30;;;12.60;99.90;;;;;;2656730;28;20293;-68
2021/09/29 03:06:16;;;;;;;11.68;10.48;;;12.60;99.90;;;;;;2649009;28;20204;-68
2021/09/29 03:07:35;;;;;;;13.30;12.00;;;12.70;99.90;;;;;;2656438;28;20300;-68
2021/09/29 03:08:53;;;;;;;12.90;11.60;;;12.80;99.90;;;;;;2650636;28;20207;-68
2021/09/29 03:10:11;;;;;;;12.00;10.90;;;12.80;99.90;;;;;;2657197;28;20238;-68
2021/09/29 03:11:29;;;;;;;12.40;11.10;;;12.80;99.90;;;;;;2655652;28;20260;-68
2021/09/29 03:12:48;;;;;;;12.45;11.25;;;12.80;99.90;;;;;;2656737;28;20214;-68
2021/09/29 03:14:06;;;;;;;11.90;10.80;;;12.90;99.90;;;;;;2655029;28;20576;-68
2021/09/29 03:15:24;;;;;;;11.88;10.80;;;13.00;99.90;;;;;;2651593;28;20262;-68
2021/09/29 03:16:42;;;;;;;12.03;10.77;;;13.10;99.90;;;;;;2656972;28;20692;-68
2021/09/29 03:18:00;;;;;;;11.80;9.63;;;13.10;99.90;;;;;;2652319;28;20226;-68
2021/09/29 03:19:19;;;;;;;12.57;10.23;;;13.10;99.90;;;;;;2655890;28;20257;-68
2021/09/29 03:20:37;;;;;;;11.80;10.60;;;13.10;99.90;;;;;;2649113;28;20206;-68
2021/09/29 03:21:55;;;;;;;12.40;11.13;;;13.10;99.90;;;;;;2653546;28;20218;-68
2021/09/29 03:23:14;;;;;;;13.30;11.40;;;13.10;99.90;;;;;;2653417;28;20757;-68
2021/09/29 03:24:32;;;;;;;11.65;10.52;;;13.00;99.90;;;;;;2652958;28;20211;-68
2021/09/29 03:25:50;;;;;;;11.75;10.55;;;13.10;99.90;;;;;;2650646;28;20233;-68
2021/09/29 03:27:08;;;;;;;13.17;10.67;;;13.10;99.90;;;;;;2648472;28;20322;-68
2021/09/29 03:28:26;;;;;;;15.52;11.20;;;13.10;99.90;;;;;;2655331;28;20286;-68
2021/09/29 03:29:44;;;;;;;11.97;10.77;;;13.10;99.90;;;;;;2653197;28;20207;-69
2021/09/29 03:31:03;;;;;;;11.85;10.65;;;13.10;99.90;;;;;;2656701;28;20263;-68
2021/09/29 03:32:21;;;;;;;11.20;9.43;;;13.20;99.90;;;;;;2654617;28;20257;-69
2021/09/29 03:33:38;;;;;;;12.90;11.07;;;13.20;99.90;;;;;;2654763;28;20199;-68
2021/09/29 03:34:57;;;;;;;12.47;9.67;;;13.20;99.90;;;;;;2657331;28;20195;-68
2021/09/29 03:36:15;;;;;;;12.18;9.40;;;13.20;99.90;;;;;;2650119;28;20577;-68
2021/09/29 03:37:34;;;;;;;12.35;10.88;;;13.20;99.90;;;;;;2647759;28;20649;-68
2021/09/29 03:38:52;;;;;;;12.60;10.02;;;13.20;99.90;;;;;;2651843;28;20210;-69
2021/09/29 03:40:10;;;;;;;10.32;9.43;;;13.20;99.90;;;;;;2657282;28;20289;-68
2021/09/29 03:41:28;;;;;;;13.50;9.53;;;13.20;99.90;;;;;;2656647;28;20289;-69
2021/09/29 03:42:46;;;;;;;11.25;10.13;;;13.20;99.90;;;;;;2657256;28;21164;-68
2021/09/29 03:44:04;;;;;;;11.30;10.20;;;13.20;99.90;;;;;;2656081;28;20234;-68
2021/09/29 03:45:22;;;;;;;12.32;10.77;;;13.20;99.90;;;;;;2654452;28;20259;-68
2021/09/29 03:46:40;;;;;;;10.83;9.23;;;13.20;99.90;;;;;;2658802;28;20705;-69
2021/09/29 03:47:57;;;;;;;11.05;9.27;;;13.10;99.90;;;;;;2656805;28;20257;-68
2021/09/29 03:49:16;;;;;;;11.17;9.80;;;13.10;99.90;;;;;;2658317;28;20242;-69
2021/09/29 03:50:33;;;;;;;10.60;9.50;;;13.10;99.90;;;;;;2649853;28;20646;-68
2021/09/29 03:51:52;;;;;;;10.10;9.10;;;13.00;99.90;;;;;;2658039;28;20491;-68
2021/09/29 03:53:10;;;;;;;11.48;10.05;;;12.90;99.90;;;;;;2654957;28;20214;-68
2021/09/29 03:54:29;;;;;;;11.00;10.00;;;13.00;99.90;;;;;;2656218;28;20211;-68
2021/09/29 03:55:46;;;;;;;11.00;9.90;;;13.00;99.90;;;;;;2659134;28;20260;-68
2021/09/29 03:57:05;;;;;;;12.27;11.07;;;12.80;99.90;;;;;;2658364;28;20329;-68
2021/09/29 03:58:23;;;;;;;11.48;9.77;;;12.80;99.90;;;;;;2658310;28;20222;-69
2021/09/29 03:59:40;;;;;;;14.43;10.98;;;12.60;99.90;;;;;;2658783;28;20203;-68
2021/09/29 04:00:59;;;;;;;11.73;10.23;;;12.50;99.90;;;;;;2658832;28;20281;-69
2021/09/29 04:02:17;;;;;;;11.32;10.25;;;12.50;99.90;;;;;;2658553;28;20668;-68
2021/09/29 04:03:35;;;;;;;11.98;10.63;;;12.50;99.90;;;;;;2657846;28;20665;-68
2021/09/29 04:04:53;;;;;;;14.23;11.70;;;12.40;99.90;;;;;;2649703;28;20214;-68
2021/09/29 04:06:12;;;;;;;11.65;10.45;;;12.40;99.90;;;;;;2651442;28;20804;-68
2021/09/29 04:07:29;;;;;;;11.60;10.50;;;12.40;99.90;;;;;;2658726;28;20230;-68
2021/09/29 04:08:48;;;;;;;11.27;10.00;;;12.30;99.90;;;;;;2655986;28;20213;-69
2021/09/29 04:10:05;;;;;;;12.70;11.40;;;12.30;99.90;;;;;;2654631;28;20209;-69
2021/09/29 04:11:24;;;;;;;12.97;11.03;;;12.20;99.90;;;;;;2652514;28;20685;-69
2021/09/29 04:12:43;;;;;;;13.00;11.65;;;12.20;99.90;;;;;;2656981;28;20265;-68
2021/09/29 04:14:01;;;;;;;12.02;10.82;;;12.10;99.90;;;;;;2655419;28;20206;-69
2021/09/29 04:15:19;;;;;;;12.55;11.35;;;12.10;99.90;;;;;;2658515;28;20623;-68
2021/09/29 04:16:37;;;;;;;13.37;12.07;;;12.00;99.90;;;;;;2651442;28;20219;-68
2021/09/29 04:17:55;;;;;;;12.90;11.38;;;12.00;99.90;;;;;;2655637;28;20215;-68
2021/09/29 04:19:13;;;;;;;13.60;12.07;;;12.00;99.90;;;;;;2655661;28;20676;-68
2021/09/29 04:20:31;;;;;;;12.82;11.50;;;11.90;99.90;;;;;;2651106;28;20250;-68
2021/09/29 04:21:49;;;;;;;13.67;12.30;;;12.00;99.90;;;;;;2658660;28;20202;-68
2021/09/29 04:23:06;;;;;;;13.32;10.77;;;11.90;99.90;;;;;;2652214;28;20211;-68
2021/09/29 04:24:25;;;;;;;12.50;11.40;;;12.00;99.90;;;;;;2654443;28;20970;-68
2021/09/29 04:25:48;;;;;;;12.68;10.88;;;12.00;99.90;;;;;;2655994;28;20210;-68
2021/09/29 04:27:07;;;;;;;13.00;11.48;;;12.20;99.90;;;;;;2651610;28;20655;-68
2021/09/29 04:28:24;;;;;;;11.32;10.23;;;12.30;99.90;;;;;;2654595;28;20199;-68
2021/09/29 04:29:42;;;;;;;11.57;10.47;;;12.40;99.90;;;;;;2657754;28;20285;-69
2021/09/29 04:31:00;;;;;;;11.80;10.70;;;12.40;99.90;;;;;;2659552;28;20238;-68
2021/09/29 04:32:18;;;;;;;11.70;10.50;;;12.40;99.90;;;;;;2652434;28;20862;-68
2021/09/29 04:33:37;;;;;;;11.43;10.18;;;12.40;99.90;;;;;;2658966;28;20599;-68
2021/09/29 04:34:54;;;;;;;13.85;12.40;;;12.50;99.90;;;;;;2654359;28;20202;-68
2021/09/29 04:36:13;;;;;;;12.37;11.13;;;12.50;99.90;;;;;;2658311;28;20209;-68
2021/09/29 04:37:30;;;;;;;12.70;10.63;;;12.50;99.90;;;;;;2650803;28;20572;-68
2021/09/29 04:38:49;;;;;;;12.93;11.63;;;12.50;99.90;;;;;;2654572;28;20307;-68
2021/09/29 04:40:07;;;;;;;11.77;10.55;;;12.50;99.90;;;;;;2656161;28;20203;-68
2021/09/29 04:41:26;;;;;;;11.15;10.02;;;12.50;99.90;;;;;;2653155;28;20295;-68
2021/09/29 04:42:44;;;;;;;10.95;9.85;;;12.50;99.90;;;;;;2651240;28;20661;-68
2021/09/29 04:44:02;;;;;;;11.45;10.25;;;12.50;99.90;;;;;;2649640;28;20227;-69
2021/09/29 04:45:20;;;;;;;12.10;10.80;;;12.50;99.90;;;;;;2655594;28;20249;-68
2021/09/29 04:46:38;;;;;;;12.17;10.97;;;12.50;99.90;;;;;;2658332;28;20281;-68
2021/09/29 04:47:57;;;;;;;12.60;11.35;;;12.50;99.90;;;;;;2655589;28;20253;-68
2021/09/29 04:49:15;;;;;;;12.10;10.90;;;12.50;99.90;;;;;;2655070;28;20252;-68
2021/09/29 04:50:34;;;;;;;11.68;10.48;;;12.40;99.90;;;;;;2656573;28;20265;-68
2021/09/29 04:51:51;;;;;;;11.60;10.40;;;12.50;99.90;;;;;;2652142;28;20253;-68
2021/09/29 04:53:10;;;;;;;12.00;10.57;;;12.40;99.90;;;;;;2654502;28;20271;-68
2021/09/29 04:54:27;;;;;;;11.60;10.40;;;12.40;99.90;;;;;;2658186;28;20199;-68
2021/09/29 04:55:45;;;;;;;12.23;9.47;;;12.40;99.90;;;;;;2651516;28;20303;-68
2021/09/29 04:57:04;;;;;;;11.52;10.30;;;12.40;99.90;;;;;;2654617;28;20623;-71
2021/09/29 04:58:23;;;;;;;11.15;9.40;;;12.40;99.90;;;;;;2658968;28;20668;-68
2021/09/29 04:59:41;;;;;;;10.32;9.35;;;12.40;99.90;;;;;;2656224;28;20628;-68
2021/09/29 05:01:00;;;;;;;12.80;10.70;;;12.40;99.90;;;;;;2656357;28;20226;-68
2021/09/29 05:02:17;;;;;;;14.40;11.57;;;12.40;99.90;;;;;;2652357;28;20200;-68
2021/09/29 05:03:35;;;;;;;10.37;9.37;;;12.40;99.90;;;;;;2656542;28;20261;-68
2021/09/29 05:04:53;;;;;;;12.18;10.30;;;12.30;99.90;;;;;;2652319;28;20612;-68
2021/09/29 05:06:11;;;;;;;12.20;10.70;;;12.30;99.90;;;;;;2658243;28;20238;-68
2021/09/29 05:07:29;;;;;;;11.15;9.32;;;12.30;99.90;;;;;;2650093;28;20231;-68
2021/09/29 05:08:47;;;;;;;11.07;10.00;;;12.30;99.90;;;;;;2650903;28;20286;-68
2021/09/29 05:10:06;;;;;;;13.45;10.68;;;12.30;99.90;;;;;;2651342;28;20692;-68
2021/09/29 05:11:24;;;;;;;12.20;10.82;;;12.30;99.90;;;;;;2655326;28;20207;-67
2021/09/29 05:12:43;;;;;;;10.85;9.85;;;12.20;99.90;;;;;;2656353;28;20206;-68
2021/09/29 05:14:01;;;;;;;12.93;10.38;;;12.20;99.90;;;;;;2649875;28;20661;-68
2021/09/29 05:15:19;;;;;;;11.55;10.35;;;12.10;99.90;;;;;;2650725;28;20732;-68
2021/09/29 05:16:39;;;;;;;13.02;10.55;;;12.00;99.90;;;;;;2651116;28;20833;-67
2021/09/29 05:17:58;;;;;;;11.50;10.40;;;11.90;99.90;;;;;;2651251;28;20226;-68
2021/09/29 05:19:18;;;;;;;11.18;10.07;;;11.80;99.90;;;;;;2652965;28;20853;-71
2021/09/29 05:20:36;;;;;;;11.88;10.60;;;11.70;99.90;;;;;;2651706;28;20266;-73
2021/09/29 05:21:55;;;;;;;11.40;10.18;;;11.70;99.90;;;;;;2657050;28;20192;-73
2021/09/29 05:23:13;;;;;;;10.73;9.68;;;11.70;99.90;;;;;;2653998;28;20212;-74
2021/09/29 05:24:32;;;;;;;10.90;9.80;;;11.70;99.90;;;;;;2654175;28;20257;-72
2021/09/29 05:25:50;;;;;;;11.75;9.68;;;11.70;99.90;;;;;;2658876;28;20652;-73
2021/09/29 05:27:09;;;;;;;10.75;9.65;;;11.70;99.90;;;;;;2658322;28;20203;-73
2021/09/29 05:28:27;;;;;;;14.10;10.40;;;11.70;99.90;;;;;;2656256;28;20661;-73
2021/09/29 05:29:45;;;;;;;12.82;10.88;;;11.70;99.90;;;;;;2650367;28;20223;-74
2021/09/29 05:31:03;;;;;;;11.73;10.52;;;11.70;99.90;;;;;;2652305;28;21002;-74
2021/09/29 05:32:21;;;;;;;12.60;10.50;;;11.70;99.90;;;;;;2653896;28;20350;-70
2021/09/29 05:33:42;;;;;;;10.43;9.32;;;11.70;99.90;;;;;;2654698;28;20207;-71
2021/09/29 05:35:00;;;;;;;10.98;9.90;;;11.70;99.90;;;;;;2652695;28;20211;-72
2021/09/29 05:36:18;;;;;;;11.82;9.52;;;11.70;99.90;;;;;;2655029;28;20215;-72
2021/09/29 05:37:36;;;;;;;12.27;11.03;;;11.70;99.90;;;;;;2657232;28;20230;-72
2021/09/29 05:38:55;;;;;;;13.32;10.63;;;11.60;99.90;;;;;;2654037;28;20604;-72
2021/09/29 05:40:13;;;;;;;12.18;10.73;;;11.60;99.90;;;;;;2652509;28;20295;-71
2021/09/29 05:41:32;;;;;;;16.13;11.15;;;11.70;99.90;;;;;;2651577;28;20203;-71
2021/09/29 05:42:50;;;;;;;12.35;10.02;;;11.70;99.90;;;;;;2658104;28;20252;-71
2021/09/29 05:44:08;;;;;;;10.23;9.23;;;11.70;99.90;;;;;;2652684;28;20566;-72
2021/09/29 05:45:26;;;;;;;14.90;11.83;;;11.70;99.90;;;;;;2656219;28;21008;-72
2021/09/29 05:46:44;;;;;;;12.93;10.38;;;11.70;99.90;;;;;;2649775;28;20207;-72
2021/09/29 05:48:02;;;;;;;13.45;10.63;;;11.70;99.90;;;;;;2648897;28;20278;-72
2021/09/29 05:49:20;;;;;;;12.83;10.13;;;11.70;99.90;;;;;;2655573;28;20341;-71
2021/09/29 05:50:39;;;;;;;11.73;10.15;;;11.70;99.90;;;;;;2648025;28;20212;-72
2021/09/29 05:51:57;;;;;;;13.02;10.60;;;11.70;99.90;;;;;;2649690;28;20218;-72
2021/09/29 05:53:16;;;;;;;12.63;10.35;;;11.80;99.90;;;;;;2650527;28;20207;-72
2021/09/29 05:54:34;;;;;;;12.18;10.73;;;11.90;99.90;;;;;;2655309;28;20211;-72
2021/09/29 05:55:53;;;;;;;11.73;10.57;;;12.00;99.90;;;;;;2652651;28;20299;-72
2021/09/29 05:57:13;;;;;;;11.45;10.45;;;12.00;99.90;;;;;;2654424;28;20870;-71
2021/09/29 05:58:34;;;;;;;13.23;9.75;;;12.00;99.90;;;;;;2656746;28;20209;-70
2021/09/29 05:59:52;;;;;;;12.65;10.85;;;12.00;99.90;;;;;;2651814;28;20206;-72
2021/09/29 06:01:10;;;;;;;11.55;10.25;;;12.00;99.90;;;;;;2655226;28;20199;-72
2021/09/29 06:02:29;;;;;;;12.65;9.82;;;12.00;99.90;;;;;;2656724;28;20203;-71
2021/09/29 06:03:47;;;;;;;15.00;9.55;;;12.00;99.90;;;;;;2657166;28;20998;-71
2021/09/29 06:05:06;;;;;;;12.55;11.35;;;12.00;99.90;;;;;;2652628;28;20241;-71
2021/09/29 06:06:24;;;;;;;13.82;10.07;;;12.00;99.90;;;;;;2657344;28;20238;-71
2021/09/29 06:07:43;;;;;;;11.27;10.02;;;12.00;99.90;;;;;;2658173;28;20284;-72
2021/09/29 06:09:01;;;;;;;11.77;10.55;;;12.00;99.90;;;;;;2656514;28;20656;-71
2021/09/29 06:10:21;;;;;;;11.60;10.27;;;12.00;99.90;;;;;;2655560;28;20207;-72
2021/09/29 06:11:40;;;;;;;11.00;9.90;;;12.00;99.90;;;;;;2657693;28;20207;-72
2021/09/29 06:12:58;;;;;;;11.35;10.25;;;12.00;99.90;;;;;;2656608;28;20207;-72
2021/09/29 06:14:17;;;;;;;11.05;9.73;;;12.00;99.90;;;;;;2657166;28;20273;-72
2021/09/29 06:15:35;;;;;;;11.00;9.80;;;12.10;99.90;;;;;;2655201;28;20207;-71
2021/09/29 06:16:59;;;;;;;11.80;10.75;;;12.10;99.90;;;;;;2656512;28;20257;-72
2021/09/29 06:18:18;;;;;;;11.02;9.93;;;12.20;99.90;;;;;;2656384;28;20203;-71
2021/09/29 06:19:35;;;;;;;11.30;10.20;;;12.20;99.90;;;;;;2654512;28;20253;-72
2021/09/29 06:20:54;;;;;;;11.63;10.43;;;12.30;99.90;;;;;;2653828;28;20297;-71
2021/09/29 06:22:12;;;;;;;10.95;9.85;;;12.30;99.90;;;;;;2653483;28;20218;-72
2021/09/29 06:23:31;;;;;;;11.73;10.52;;;12.40;99.90;;;;;;2656074;28;20194;-71
2021/09/29 06:24:50;;;;;;;14.50;10.70;;;12.50;99.90;;;;;;2650589;28;20199;-71
2021/09/29 06:26:09;;;;;;;16.33;11.77;;;12.60;99.90;;;;;;2656953;28;20221;-71
2021/09/29 06:27:26;;;;;;;12.02;10.82;;;12.70;99.90;;;;;;2657909;28;20821;-71
2021/09/29 06:28:45;;;;;;;11.40;10.20;;;12.90;99.90;;;;;;2657028;28;20210;-71
2021/09/29 06:30:03;;;;;;;12.32;11.20;;;13.10;99.90;;;;;;2656238;28;20793;-72
2021/09/29 06:31:26;;;;;;;10.55;9.30;;;13.40;99.90;;;;;;2654382;28;20204;-71
2021/09/29 06:32:44;;;;;;;11.55;10.55;;;13.60;99.90;;;;;;2649762;28;20700;-72
2021/09/29 06:34:03;;;;;;;9.45;8.45;;;13.80;99.90;;;;;;2655778;28;20630;-73
2021/09/29 06:35:22;;;;;;;9.55;8.57;;;14.00;99.90;;;;;;2657089;28;20207;-72
2021/09/29 06:36:40;;;;;;;9.82;7.68;;;14.20;99.90;;;;;;2654686;28;20241;-72
2021/09/29 06:38:00;;;;;;;10.60;9.60;;;14.30;99.90;;;;;;2656558;28;20257;-71
2021/09/29 06:39:18;;;;;;;9.95;8.50;;;14.30;99.90;;;;;;2657267;28;20287;-72